createdAt,value
2023-02-14T00:00:49.593Z,14.10
2023-02-14T00:03:16.702Z,14.88
2023-02-14T00:05:43.801Z,15.38
2023-02-14T00:08:10.959Z,16.83
2023-02-14T00:10:38.131Z,20.88
2023-02-14T00:13:05.616Z,18.92
2023-02-14T00:15:32.705Z,19.83
2023-02-14T00:18:00.670Z,20.00
2023-02-14T00:20:28.638Z,19.92
2023-02-14T00:22:55.796Z,17.77
2023-02-14T00:25:22.951Z,15.77
2023-02-14T00:27:50.091Z,14.32
2023-02-14T00:30:17.450Z,14.95
2023-02-14T00:32:44.586Z,16.67
2023-02-14T00:35:11.859Z,14.50
2023-02-14T00:37:41.488Z,17.58
2023-02-14T00:40:08.972Z,17.58
2023-02-14T00:42:36.272Z,19.30
2023-02-14T00:45:03.709Z,17.05
2023-02-14T00:47:31.152Z,19.17
2023-02-14T00:50:02.682Z,16.60
2023-02-14T00:52:30.869Z,22.45
2023-02-14T00:54:58.532Z,19.60
2023-02-14T00:57:25.720Z,19.85
2023-02-14T00:59:52.861Z,18.38
2023-02-14T01:02:22.004Z,17.83
2023-02-14T01:04:51.633Z,19.35
2023-02-14T01:07:18.770Z,20.23
2023-02-14T01:09:45.894Z,22.33
2023-02-14T01:12:13.001Z,18.52
2023-02-14T01:14:42.743Z,17.08
2023-02-14T01:17:09.936Z,19.25
2023-02-14T01:19:38.223Z,20.67
2023-02-14T01:22:06.470Z,18.15
2023-02-14T01:24:33.676Z,20.98
2023-02-14T01:27:00.969Z,20.98
2023-02-14T01:29:28.142Z,22.73
2023-02-14T01:31:55.337Z,21.67
2023-02-14T01:34:25.397Z,22.48
2023-02-14T01:36:52.570Z,21.05
2023-02-14T01:39:19.827Z,24.60
2023-02-14T01:41:50.743Z,22.20
2023-02-14T01:44:17.841Z,23.00
2023-02-14T01:46:46.375Z,26.98
2023-02-14T01:49:19.136Z,24.08
2023-02-14T01:51:51.043Z,21.35
2023-02-14T01:54:21.037Z,22.98
2023-02-14T01:56:50.447Z,23.08
2023-02-14T01:59:20.180Z,21.85
2023-02-14T02:01:49.522Z,20.83
2023-02-14T02:04:20.039Z,19.95
2023-02-14T02:06:55.176Z,22.13
2023-02-14T02:09:29.119Z,21.38
2023-02-14T02:11:56.288Z,21.98
2023-02-14T02:14:23.896Z,22.83
2023-02-14T02:16:57.207Z,17.92
2023-02-14T02:19:30.586Z,20.92
2023-02-14T02:22:03.866Z,21.50
2023-02-14T02:24:36.998Z,20.20
2023-02-14T02:27:10.163Z,20.60
2023-02-14T02:29:41.084Z,16.30
2023-02-14T02:32:40.571Z,18.33
2023-02-14T02:35:07.619Z,23.77
2023-02-14T02:37:52.152Z,22.88
2023-02-14T02:40:42.159Z,18.77
2023-02-14T02:43:18.497Z,20.92
2023-02-14T02:46:08.243Z,18.70
2023-02-14T02:48:38.117Z,18.70
2023-02-14T02:51:29.194Z,19.63
2023-02-14T02:53:59.551Z,15.45
2023-02-14T02:56:45.678Z,16.38
2023-02-14T02:59:18.590Z,15.65
2023-02-14T03:02:08.858Z,15.77
2023-02-14T03:04:54.195Z,16.83
2023-02-14T03:07:34.815Z,17.00
2023-02-14T03:10:12.501Z,18.38
2023-02-14T03:12:51.636Z,17.80
2023-02-14T03:15:25.425Z,19.90
2023-02-14T03:18:17.821Z,15.73
2023-02-14T03:20:55.968Z,16.70
2023-02-14T03:23:23.070Z,16.10
2023-02-14T03:25:53.031Z,18.15
2023-02-14T03:28:22.975Z,18.40
2023-02-14T03:31:09.318Z,14.30
2023-02-14T03:33:58.812Z,18.27
2023-02-14T03:36:35.708Z,18.27
2023-02-14T03:39:18.184Z,19.20
2023-02-14T03:42:06.192Z,17.75
2023-02-14T03:44:35.006Z,17.00
2023-02-14T03:47:05.098Z,19.25
2023-02-14T03:49:35.237Z,16.17
2023-02-14T03:52:03.829Z,16.27
2023-02-14T03:54:33.404Z,16.92
2023-02-14T03:57:15.942Z,18.13
2023-02-14T03:59:43.276Z,15.80
2023-02-14T04:02:15.881Z,14.82
2023-02-14T04:07:17.588Z,15.13
2023-02-14T04:09:44.688Z,16.58
2023-02-14T04:12:12.325Z,14.48
2023-02-14T04:14:39.735Z,14.65
2023-02-14T04:17:25.698Z,16.27
2023-02-14T04:19:52.773Z,13.38
2023-02-14T04:22:19.947Z,13.50
2023-02-14T04:24:47.110Z,13.73
2023-02-14T04:27:15.337Z,15.02
2023-02-14T04:29:45.835Z,15.38
2023-02-14T04:32:14.387Z,15.73
2023-02-14T04:34:42.057Z,16.88
2023-02-14T04:37:09.749Z,13.20
2023-02-14T04:39:37.051Z,14.98
2023-02-14T04:42:04.681Z,14.25
2023-02-14T04:44:33.994Z,13.63
2023-02-14T04:47:01.524Z,14.95
2023-02-14T04:49:28.773Z,14.70
2023-02-14T04:51:55.976Z,14.07
2023-02-14T04:54:26.309Z,13.60
2023-02-14T04:56:53.479Z,13.65
2023-02-14T04:59:20.703Z,14.30
2023-02-14T05:01:47.829Z,12.88
2023-02-14T05:04:15.046Z,11.15
2023-02-14T05:06:42.152Z,12.60
2023-02-14T05:09:09.215Z,14.00
2023-02-14T05:11:36.362Z,15.13
2023-02-14T05:14:03.474Z,13.85
2023-02-14T05:16:30.651Z,12.80
2023-02-14T05:18:57.759Z,12.43
2023-02-14T05:21:24.989Z,11.77
2023-02-14T05:23:52.144Z,12.10
2023-02-14T05:26:19.285Z,12.68
2023-02-14T05:28:46.393Z,13.38
2023-02-14T05:31:13.617Z,12.63
2023-02-14T05:33:40.867Z,13.02
2023-02-14T05:36:08.264Z,11.57
2023-02-14T05:38:35.352Z,12.52
2023-02-14T05:41:02.842Z,11.52
2023-02-14T05:43:31.044Z,11.80
2023-02-14T05:45:58.500Z,10.98
2023-02-14T05:48:25.636Z,12.38
2023-02-14T05:50:52.750Z,10.77
2023-02-14T05:53:19.904Z,12.13
2023-02-14T05:55:47.365Z,12.15
2023-02-14T05:58:14.691Z,10.82
2023-02-14T06:00:41.886Z,11.48
2023-02-14T06:03:09.275Z,14.27
2023-02-14T06:05:36.841Z,11.07
2023-02-14T06:08:04.053Z,10.43
2023-02-14T06:10:31.299Z,11.02
2023-02-14T06:12:58.651Z,11.52
2023-02-14T06:15:25.743Z,10.45
2023-02-14T06:17:53.843Z,11.25
2023-02-14T06:20:21.468Z,9.93
2023-02-14T06:22:48.661Z,10.20
2023-02-14T06:25:15.823Z,9.70
2023-02-14T06:27:42.967Z,12.40
2023-02-14T06:30:10.635Z,9.85
2023-02-14T06:32:37.807Z,10.68
2023-02-14T06:35:05.110Z,8.40
2023-02-14T06:37:32.305Z,10.88
2023-02-14T06:39:59.460Z,11.68
2023-02-14T06:42:26.634Z,10.13
2023-02-14T06:44:53.849Z,10.63
2023-02-14T06:47:20.965Z,10.73
2023-02-14T06:49:48.089Z,11.15
2023-02-14T06:52:15.220Z,10.30
2023-02-14T06:54:42.343Z,10.40
2023-02-14T06:57:09.494Z,9.15
2023-02-14T06:59:36.639Z,9.18
2023-02-14T07:02:03.909Z,11.05
2023-02-14T07:04:31.085Z,10.70
2023-02-14T07:06:58.928Z,9.82
2023-02-14T07:09:26.067Z,11.10
2023-02-14T07:11:53.148Z,11.25
2023-02-14T07:14:20.305Z,11.90
2023-02-14T07:16:47.488Z,12.00
2023-02-14T07:19:14.709Z,14.20
2023-02-14T07:21:41.821Z,15.88
2023-02-14T07:24:08.970Z,13.05
2023-02-14T07:26:36.092Z,12.55
2023-02-14T07:29:03.244Z,17.67
2023-02-14T07:31:30.427Z,11.98
2023-02-14T07:34:01.131Z,12.00
2023-02-14T07:36:28.294Z,12.88
2023-02-14T07:38:58.488Z,16.33
2023-02-14T07:41:28.724Z,14.90
2023-02-14T07:43:55.799Z,16.60
2023-02-14T07:46:22.944Z,18.02
2023-02-14T07:48:51.840Z,13.55
2023-02-14T07:51:18.975Z,15.93
2023-02-14T07:53:46.106Z,14.90
2023-02-14T07:56:13.375Z,17.38
2023-02-14T07:58:40.497Z,16.33
2023-02-14T08:01:07.748Z,15.82
2023-02-14T08:03:35.152Z,18.95
2023-02-14T08:06:05.654Z,15.63
2023-02-14T08:08:32.888Z,17.08
2023-02-14T08:11:00.451Z,20.23
2023-02-14T08:13:27.749Z,18.63
2023-02-14T08:16:12.580Z,19.85
2023-02-14T08:18:40.694Z,19.20
2023-02-14T08:21:09.165Z,17.92
2023-02-14T08:23:36.682Z,17.60
2023-02-14T08:26:03.999Z,18.88
2023-02-14T08:28:32.933Z,21.33
2023-02-14T08:31:00.519Z,19.05
2023-02-14T08:33:27.912Z,19.95
2023-02-14T08:35:55.106Z,17.48
2023-02-14T08:38:22.651Z,16.75
2023-02-14T08:40:49.773Z,17.48
2023-02-14T08:43:16.863Z,21.20
2023-02-14T08:45:44.294Z,21.13
2023-02-14T08:48:12.299Z,19.95
2023-02-14T08:50:42.027Z,23.52
2023-02-14T08:53:10.273Z,20.73
2023-02-14T08:55:37.792Z,22.95
2023-02-14T08:58:05.266Z,22.27
2023-02-14T09:00:33.254Z,20.13
2023-02-14T09:03:00.581Z,24.17
2023-02-14T09:05:28.120Z,28.38
2023-02-14T09:07:58.450Z,26.30
2023-02-14T09:10:26.133Z,23.20
2023-02-14T09:12:53.288Z,24.38
2023-02-14T09:15:20.691Z,25.08
2023-02-14T09:17:47.947Z,24.10
2023-02-14T09:20:15.860Z,24.63
2023-02-14T09:22:43.567Z,26.45
2023-02-14T09:25:10.816Z,26.90
2023-02-14T09:27:38.220Z,24.70
2023-02-14T09:30:11.681Z,26.52
2023-02-14T09:32:39.217Z,25.23
2023-02-14T09:35:06.834Z,24.38
2023-02-14T09:37:33.970Z,26.33
2023-02-14T09:40:01.230Z,26.90
2023-02-14T09:42:40.887Z,29.35
2023-02-14T09:45:15.342Z,26.48
2023-02-14T09:47:52.092Z,28.45
2023-02-14T09:50:34.626Z,24.17
2023-02-14T09:53:19.086Z,28.83
2023-02-14T09:55:53.206Z,29.13
2023-02-14T09:58:23.742Z,23.48
2023-02-14T10:00:58.282Z,27.67
2023-02-14T10:03:33.923Z,27.05
2023-02-14T10:06:21.552Z,25.63
2023-02-14T10:09:07.693Z,23.48
2023-02-14T10:11:35.155Z,27.67
2023-02-14T10:14:09.388Z,27.13
2023-02-14T10:16:42.350Z,25.58
2023-02-14T10:19:24.894Z,24.65
2023-02-14T10:21:56.279Z,27.15
2023-02-14T10:24:28.588Z,27.05
2023-02-14T10:26:57.791Z,27.13
2023-02-14T10:29:25.001Z,26.98
2023-02-14T10:32:02.628Z,27.67
2023-02-14T10:34:40.061Z,24.55
2023-02-14T10:37:16.085Z,25.10
2023-02-14T10:39:46.274Z,24.77
2023-02-14T10:42:33.238Z,22.63
2023-02-14T10:45:15.554Z,25.05
2023-02-14T10:48:01.100Z,32.17
2023-02-14T10:50:41.950Z,26.08
2023-02-14T10:53:16.992Z,24.67
2023-02-14T10:55:44.163Z,28.13
2023-02-14T10:58:14.556Z,26.63
2023-02-14T11:00:47.493Z,25.65
2023-02-14T11:03:15.066Z,27.85
2023-02-14T11:05:46.583Z,29.20
2023-02-14T11:08:14.860Z,29.90
2023-02-14T11:10:42.066Z,27.48
2023-02-14T11:13:27.700Z,25.98
2023-02-14T11:15:54.871Z,26.58
2023-02-14T11:18:23.962Z,25.75
2023-02-14T11:21:02.168Z,27.73
2023-02-14T11:23:33.352Z,27.52
2023-02-14T11:26:00.902Z,27.42
2023-02-14T11:28:28.380Z,24.23
2023-02-14T11:30:55.677Z,24.75
2023-02-14T11:33:43.632Z,24.85
2023-02-14T11:36:15.098Z,26.30
2023-02-14T11:38:43.977Z,25.42
2023-02-14T11:41:13.220Z,22.60
2023-02-14T11:43:41.736Z,24.00
2023-02-14T11:46:14.850Z,28.13
2023-02-14T11:49:01.445Z,24.67
2023-02-14T11:51:30.290Z,26.67
2023-02-14T11:54:03.236Z,26.25
2023-02-14T11:56:47.861Z,24.65
2023-02-14T11:59:29.246Z,23.63
2023-02-14T12:01:58.663Z,31.17
2023-02-14T12:04:46.169Z,31.88
2023-02-14T12:07:22.071Z,30.83
2023-02-14T12:09:50.653Z,29.58
2023-02-14T12:12:23.373Z,27.67
2023-02-14T12:14:50.674Z,26.85
2023-02-14T12:17:21.250Z,27.35
2023-02-14T12:19:51.078Z,30.65
2023-02-14T12:22:23.122Z,31.20
2023-02-14T12:24:53.345Z,26.90
2023-02-14T12:27:39.868Z,31.30
2023-02-14T12:30:14.220Z,27.45
2023-02-14T12:32:47.402Z,28.23
2023-02-14T12:35:14.765Z,29.90
2023-02-14T12:38:04.593Z,30.42
2023-02-14T12:40:50.660Z,31.73
2023-02-14T12:43:26.273Z,31.23
2023-02-14T12:46:13.532Z,31.70
2023-02-14T12:48:47.282Z,29.88
2023-02-14T12:51:50.426Z,30.67
2023-02-14T12:54:32.902Z,28.75
2023-02-14T12:57:08.470Z,34.00
2023-02-14T12:59:38.608Z,29.48
2023-02-14T13:02:25.788Z,29.58
2023-02-14T13:04:55.746Z,33.15
2023-02-14T13:07:41.779Z,33.67
2023-02-14T13:10:24.563Z,33.17
2023-02-14T13:15:25.573Z,32.63
2023-02-14T13:17:54.931Z,29.83
2023-02-14T13:20:40.771Z,28.95
2023-02-14T13:23:20.279Z,31.20
2023-02-14T13:25:51.184Z,30.10
2023-02-14T13:28:19.309Z,31.70
2023-02-14T13:30:46.540Z,32.53
2023-02-14T13:33:25.699Z,45.85
2023-02-14T13:35:54.769Z,30.55
2023-02-14T13:38:22.077Z,32.88
2023-02-14T13:40:49.588Z,30.30
2023-02-14T13:43:36.918Z,27.20
2023-02-14T13:46:04.152Z,30.33
2023-02-14T13:48:31.769Z,30.58
2023-02-14T13:51:03.346Z,31.17
2023-02-14T13:53:32.006Z,29.27
2023-02-14T13:55:59.801Z,30.67
2023-02-14T13:58:27.795Z,29.55
2023-02-14T14:00:58.139Z,30.75
2023-02-14T14:03:28.001Z,30.52
2023-02-14T14:05:58.815Z,32.53
2023-02-14T14:08:27.579Z,30.75
2023-02-14T14:11:06.567Z,32.42
2023-02-14T14:13:42.835Z,31.13
2023-02-14T14:16:28.481Z,30.42
2023-02-14T14:19:21.984Z,29.38
2023-02-14T14:22:09.269Z,32.47
2023-02-14T14:24:36.374Z,29.38
2023-02-14T14:27:04.614Z,28.77
2023-02-14T14:29:34.747Z,29.25
2023-02-14T14:32:19.416Z,27.63
2023-02-14T14:34:53.712Z,30.45
2023-02-14T14:37:22.119Z,32.05
2023-02-14T14:39:53.558Z,27.02
2023-02-14T14:42:21.381Z,30.08
2023-02-14T14:44:51.535Z,30.25
2023-02-14T14:47:21.366Z,31.92
2023-02-14T14:49:48.675Z,33.08
2023-02-14T14:52:25.056Z,32.65
2023-02-14T14:54:53.294Z,29.05
2023-02-14T14:57:21.356Z,29.63
2023-02-14T14:59:49.375Z,29.95
2023-02-14T15:02:24.373Z,30.88
2023-02-14T15:04:51.531Z,28.88
2023-02-14T15:07:18.819Z,31.55
2023-02-14T15:09:46.316Z,35.85
2023-02-14T15:12:34.887Z,31.63
2023-02-14T15:15:02.031Z,29.40
2023-02-14T15:17:30.583Z,27.92
2023-02-14T15:20:05.625Z,31.27
2023-02-14T15:22:41.466Z,27.10
2023-02-14T15:25:11.422Z,30.08
2023-02-14T15:27:42.007Z,27.85
2023-02-14T15:30:23.567Z,32.63
2023-02-14T15:32:51.753Z,28.13
2023-02-14T15:35:22.216Z,30.85
2023-02-14T15:37:50.801Z,31.00
2023-02-14T15:40:18.781Z,31.60
2023-02-14T15:42:46.005Z,32.80
2023-02-14T15:45:16.981Z,29.08
2023-02-14T15:47:48.420Z,28.85
2023-02-14T15:50:17.180Z,29.58
2023-02-14T15:52:44.831Z,32.38
2023-02-14T15:55:12.788Z,29.50
2023-02-14T15:57:40.034Z,29.35
2023-02-14T16:00:11.551Z,26.10
2023-02-14T16:02:43.466Z,31.35
2023-02-14T16:05:18.208Z,30.60
2023-02-14T16:07:58.820Z,30.20
2023-02-14T16:10:27.291Z,29.85
2023-02-14T16:13:14.747Z,29.10
2023-02-14T16:15:56.692Z,30.23
2023-02-14T16:18:40.255Z,30.88
2023-02-14T16:21:23.462Z,32.33
2023-02-14T16:24:11.695Z,31.23
2023-02-14T16:26:40.248Z,25.75
2023-02-14T16:29:08.410Z,30.17
2023-02-14T16:31:36.636Z,30.00
2023-02-14T16:34:03.895Z,30.65
2023-02-14T16:36:31.955Z,27.30
2023-02-14T16:38:59.636Z,29.42
2023-02-14T16:41:27.942Z,28.75
2023-02-14T16:43:55.702Z,30.88
2023-02-14T16:46:27.180Z,29.17
2023-02-14T16:48:56.629Z,31.92
2023-02-14T16:51:25.116Z,32.83
2023-02-14T16:53:52.816Z,29.70
2023-02-14T16:56:30.916Z,31.90
2023-02-14T16:58:58.136Z,28.73
2023-02-14T17:01:25.521Z,32.15
2023-02-14T17:03:52.704Z,31.08
2023-02-14T17:06:22.879Z,28.38
2023-02-14T17:08:51.595Z,29.75
2023-02-14T17:11:19.054Z,32.05
2023-02-14T17:13:46.997Z,32.75
2023-02-14T17:16:15.593Z,36.75
2023-02-14T17:18:46.113Z,34.58
2023-02-14T17:21:13.269Z,27.73
2023-02-14T17:23:40.392Z,25.80
2023-02-14T17:26:07.482Z,28.08
2023-02-14T17:28:34.648Z,31.55
2023-02-14T17:31:02.356Z,33.17
2023-02-14T17:33:31.926Z,31.52
2023-02-14T17:36:06.634Z,33.67
2023-02-14T17:38:34.392Z,31.73
2023-02-14T17:41:10.673Z,30.15
2023-02-14T17:43:37.865Z,31.23
2023-02-14T17:46:05.489Z,29.13
2023-02-14T17:48:32.741Z,31.00
2023-02-14T17:51:04.395Z,30.38
2023-02-14T17:53:32.038Z,33.33
2023-02-14T17:55:59.121Z,31.02
2023-02-14T17:58:26.190Z,28.85
2023-02-14T18:00:53.308Z,30.85
2023-02-14T18:03:20.570Z,31.45
2023-02-14T18:05:47.639Z,31.45
2023-02-14T18:08:14.718Z,27.95
2023-02-14T18:10:41.849Z,32.72
2023-02-14T18:13:08.939Z,34.63
2023-02-14T18:15:36.259Z,32.45
2023-02-14T18:18:03.450Z,35.17
2023-02-14T18:20:30.557Z,29.85
2023-02-14T18:22:57.659Z,33.03
2023-02-14T18:25:24.782Z,38.70
2023-02-14T18:27:52.042Z,35.58
2023-02-14T18:30:19.220Z,40.22
2023-02-14T18:32:46.340Z,36.90
2023-02-14T18:35:13.894Z,33.50
2023-02-14T18:37:41.901Z,31.48
2023-02-14T18:40:19.926Z,34.65
2023-02-14T18:42:47.070Z,34.90
2023-02-14T18:45:14.212Z,38.30
2023-02-14T18:47:41.310Z,35.97
2023-02-14T18:50:08.590Z,33.60
2023-02-14T18:52:36.616Z,37.70
2023-02-14T18:55:04.475Z,33.58
2023-02-14T18:57:31.777Z,36.33
2023-02-14T18:59:58.986Z,29.52
2023-02-14T19:02:26.313Z,31.73
2023-02-14T19:04:54.067Z,27.27
2023-02-14T19:07:21.177Z,35.08
2023-02-14T19:09:48.256Z,32.28
2023-02-14T19:12:15.400Z,34.10
2023-02-14T19:14:42.880Z,33.50
2023-02-14T19:17:10.068Z,34.40
2023-02-14T19:19:37.271Z,31.90
2023-02-14T19:22:04.436Z,34.75
2023-02-14T19:24:31.655Z,32.70
2023-02-14T19:26:58.935Z,32.15
2023-02-14T19:29:26.821Z,32.30
2023-02-14T19:31:55.397Z,32.60
2023-02-14T19:34:28.889Z,33.20
2023-02-14T19:36:58.823Z,30.38
2023-02-14T19:39:29.673Z,30.88
2023-02-14T19:41:56.972Z,29.17
2023-02-14T19:44:25.796Z,32.00
2023-02-14T19:46:56.703Z,33.17
2023-02-14T19:49:24.863Z,31.90
2023-02-14T19:51:52.246Z,42.65
2023-02-14T19:54:21.946Z,53.40
2023-02-14T19:56:49.301Z,56.42
2023-02-14T19:59:20.395Z,48.80
2023-02-14T20:01:49.444Z,44.25
2023-02-14T20:04:18.675Z,42.38
2023-02-14T20:06:47.451Z,39.30
2023-02-14T20:09:15.781Z,43.70
2023-02-14T20:11:50.250Z,44.28
2023-02-14T20:14:40.814Z,39.42
2023-02-14T20:17:15.642Z,40.58
2023-02-14T20:19:43.345Z,39.03
2023-02-14T20:22:10.807Z,33.67
2023-02-14T20:24:39.467Z,28.88
2023-02-14T20:27:08.257Z,26.45
2023-02-14T20:29:38.966Z,23.05
2023-02-14T20:32:06.818Z,25.98
2023-02-14T20:34:34.459Z,28.00
2023-02-14T20:37:02.031Z,23.73
2023-02-14T20:39:33.897Z,21.08
2023-02-14T20:42:02.134Z,19.05
2023-02-14T20:44:31.515Z,20.30
2023-02-14T20:46:59.350Z,21.73
2023-02-14T20:49:27.602Z,22.45
2023-02-14T20:51:56.182Z,23.98
2023-02-14T20:54:24.592Z,23.15
2023-02-14T20:56:52.853Z,21.00
2023-02-14T20:59:27.149Z,24.70
2023-02-14T21:01:56.232Z,25.08
2023-02-14T21:04:24.236Z,21.20
2023-02-14T21:06:52.076Z,25.10
2023-02-14T21:09:22.078Z,21.88
2023-02-14T21:11:50.327Z,16.90
2023-02-14T21:14:17.622Z,12.95
2023-02-14T21:16:44.990Z,14.68
2023-02-14T21:19:12.296Z,13.43
2023-02-14T21:21:39.823Z,14.20
2023-02-14T21:24:16.750Z,16.52
2023-02-14T21:26:44.606Z,22.88
2023-02-14T21:29:12.037Z,18.30
2023-02-14T21:31:39.572Z,16.73
2023-02-14T21:34:06.891Z,17.38
2023-02-14T21:36:37.630Z,14.15
2023-02-14T21:39:07.659Z,12.55
2023-02-14T21:41:35.606Z,11.23
2023-02-14T21:44:03.247Z,11.05
2023-02-14T21:46:37.724Z,13.60
2023-02-14T21:49:26.261Z,16.50
2023-02-14T21:51:53.527Z,16.60
2023-02-14T21:54:20.632Z,16.55
2023-02-14T21:56:49.309Z,15.30
2023-02-14T21:59:16.466Z,15.07
2023-02-14T22:01:47.868Z,19.35
2023-02-14T22:04:15.086Z,18.30
2023-02-14T22:06:45.831Z,18.98
2023-02-14T22:09:14.132Z,19.00
2023-02-14T22:11:41.681Z,17.42
2023-02-14T22:14:08.946Z,18.20
2023-02-14T22:16:39.183Z,18.38
2023-02-14T22:19:07.776Z,14.40
2023-02-14T22:21:35.397Z,11.60
2023-02-14T22:24:02.581Z,12.05
2023-02-14T22:26:30.885Z,12.90
2023-02-14T22:29:00.120Z,12.63
2023-02-14T22:31:28.565Z,11.15
2023-02-14T22:33:55.836Z,10.75
2023-02-14T22:36:23.181Z,9.30
2023-02-14T22:38:50.306Z,11.82
2023-02-14T22:41:19.295Z,12.43
2023-02-14T22:43:46.612Z,12.23
2023-02-14T22:46:19.950Z,9.77
2023-02-14T22:48:47.829Z,8.88
2023-02-14T22:51:23.826Z,9.85
2023-02-14T22:53:52.040Z,12.70
2023-02-14T22:56:23.799Z,11.48
2023-02-14T22:58:57.791Z,12.80
2023-02-14T23:01:25.691Z,12.23
2023-02-14T23:03:54.010Z,11.50
2023-02-14T23:06:21.206Z,10.23
2023-02-14T23:08:48.586Z,10.50
2023-02-14T23:11:16.810Z,9.15
2023-02-14T23:14:02.906Z,7.43
2023-02-14T23:16:48.602Z,9.40
2023-02-14T23:19:35.636Z,12.00
2023-02-14T23:22:06.912Z,9.23
2023-02-14T23:24:34.059Z,8.02
2023-02-14T23:27:01.500Z,8.25
2023-02-14T23:29:28.666Z,7.93
2023-02-14T23:31:56.001Z,7.88
2023-02-14T23:34:30.109Z,7.43
2023-02-14T23:36:57.329Z,7.03
2023-02-14T23:39:24.388Z,7.68
2023-02-14T23:41:51.551Z,7.60
2023-02-14T23:44:26.050Z,6.53
2023-02-14T23:46:54.361Z,7.53
2023-02-14T23:49:22.110Z,8.80
2023-02-14T23:51:50.011Z,8.85
2023-02-14T23:54:17.706Z,11.30
2023-02-14T23:56:45.679Z,9.30
2023-02-14T23:59:13.314Z,9.07
